Time;durP1;ratioP1;P1;durP2;ratioP2;P2;SDS_P1;SDS_P2;PMS_P1;PMS_P2;Temp;Humidity;BMP_temperature;BMP_pressure;BME280_temperature;BME280_humidity;BME280_pressure;Samples;Min_cycle;Max_cycle;Signal;HPM_P1;HPM_P2
2021/07/21 00:01:08;;;;;;;16.08;11.88;;;563.80;1587.20;;;;;;5097172;28;20032;-56
2021/07/21 00:03:34;;;;;;;13.30;11.43;;;563.80;1587.20;;;;;;5097119;28;20052;-56
2021/07/21 00:06:00;;;;;;;18.08;11.20;;;563.90;1587.20;;;;;;5097573;28;20067;-56
2021/07/21 00:08:25;;;;;;;14.90;11.57;;;563.90;1587.20;;;;;;5096642;28;20024;-56
2021/07/21 00:13:26;;;;;;;15.88;12.13;;;563.90;1587.20;;;;;;5096657;28;20020;-56
2021/07/21 00:13:37;;;;;;;13.77;10.65;;;563.80;1587.20;;;;;;5096571;28;20036;-56
2021/07/21 00:20:58;;;;;;;13.65;10.18;;;563.70;1612.80;;;;;;5096816;28;20055;-56
2021/07/21 00:23:24;;;;;;;17.08;12.00;;;563.70;1612.80;;;;;;5096447;28;20094;-56
2021/07/21 00:25:50;;;;;;;18.33;11.23;;;563.60;1612.80;;;;;;5096110;28;20051;-56
2021/07/21 00:28:18;;;;;;;18.20;12.20;;;563.60;1612.80;;;;;;5096213;28;20164;-56
2021/07/21 00:30:45;;;;;;;19.65;11.93;;;563.60;1612.80;;;;;;5096565;28;20360;-56
2021/07/21 00:33:11;;;;;;;14.73;11.57;;;563.60;1612.80;;;;;;5096518;28;20040;-56
2021/07/21 00:35:37;;;;;;;14.43;11.18;;;563.60;1612.80;;;;;;5096456;28;20036;-56
2021/07/21 00:38:03;;;;;;;16.38;11.70;;;563.50;1612.80;;;;;;5096493;28;20028;-56
2021/07/21 00:40:30;;;;;;;17.48;10.93;;;563.50;1612.80;;;;;;5096417;28;20380;-56
2021/07/21 00:42:57;;;;;;;14.43;11.23;;;563.50;1612.80;;;;;;5096357;28;20100;-56
2021/07/21 00:45:22;;;;;;;14.93;11.82;;;563.50;1612.80;;;;;;5096323;28;20032;-56
2021/07/21 00:47:48;;;;;;;16.70;11.13;;;563.50;1612.80;;;;;;5096207;28;20503;-56
2021/07/21 00:50:14;;;;;;;24.33;11.88;;;563.50;1612.80;;;;;;5096214;28;20020;-56
2021/07/21 00:52:42;;;;;;;14.15;11.10;;;563.40;1612.80;;;;;;5096090;28;20523;-56
2021/07/21 00:55:14;;;;;;;14.63;11.05;;;563.30;1638.40;;;;;;5095834;28;20028;-56
2021/07/21 00:57:40;;;;;;;16.10;11.27;;;563.30;1638.40;;;;;;5095806;28;20028;-56
2021/07/21 01:00:15;;;;;;;17.10;11.13;;;563.30;1638.40;;;;;;5096087;28;20404;-56
2021/07/21 01:02:42;;;;;;;13.75;10.82;;;563.40;1612.80;;;;;;5095856;28;20024;-56
2021/07/21 01:05:21;;;;;;;16.02;11.18;;;563.30;1612.80;;;;;;5095602;28;20410;-56
2021/07/21 01:07:49;;;;;;;17.42;11.70;;;563.30;1638.40;;;;;;5095897;28;20380;-56
2021/07/21 01:10:17;;;;;;;17.80;11.82;;;563.30;1612.80;;;;;;5095824;28;20027;-56
2021/07/21 01:12:52;;;;;;;18.52;11.80;;;563.20;1638.40;;;;;;5095730;28;20040;-56
2021/07/21 01:15:34;;;;;;;15.02;12.05;;;563.20;1638.40;;;;;;5095802;28;20028;-56
2021/07/21 01:18:10;;;;;;;13.90;11.15;;;563.20;1612.80;;;;;;5095386;28;20035;-56
2021/07/21 01:21:13;;;;;;;14.10;11.07;;;563.20;1612.80;;;;;;5095493;28;20025;-56
2021/07/21 01:23:48;;;;;;;17.13;12.60;;;563.20;1612.80;;;;;;5095385;28;20476;-56
2021/07/21 01:26:42;;;;;;;17.00;11.13;;;563.20;1612.80;;;;;;5095527;28;20024;-56
2021/07/21 01:29:09;;;;;;;16.55;11.63;;;538.50;1587.20;;;;;;5067537;28;20040;-56
2021/07/21 01:31:42;;;;;;;15.05;11.00;;;538.40;1587.20;;;;;;5095335;28;20391;-56
2021/07/21 01:34:09;;;;;;;;;;;538.40;1612.80;;;;;;5095396;28;20017;-56
2021/07/21 01:36:41;;;;;;;16.05;11.63;;;538.30;1638.40;;;;;;5093937;28;19904;-56
2021/07/21 01:39:15;;;;;;;16.80;12.18;;;538.30;1664.00;;;;;;5095048;28;20024;-56
2021/07/21 01:41:56;;;;;;;26.55;12.32;;;538.30;1664.00;;;;;;5094760;28;20404;-56
2021/07/21 01:44:26;;;;;;;13.25;11.50;;;538.30;1664.00;;;;;;5093675;28;20028;-56
2021/07/21 01:46:55;;;;;;;15.65;11.65;;;538.20;1664.00;;;;;;5094535;28;20016;-57
2021/07/21 01:49:26;;;;;;;19.45;12.50;;;538.20;1638.40;;;;;;5094702;28;20024;-56
2021/07/21 01:51:52;;;;;;;18.90;11.70;;;538.20;1638.40;;;;;;5094533;28;20028;-56
2021/07/21 01:54:19;;;;;;;13.45;10.95;;;538.20;1638.40;;;;;;5094457;28;20028;-57
2021/07/21 01:56:47;;;;;;;17.25;11.13;;;538.20;1638.40;;;;;;5094476;28;20077;-58
2021/07/21 01:59:13;;;;;;;13.48;10.90;;;538.20;1638.40;;;;;;5094515;28;20461;-56
2021/07/21 02:01:39;;;;;;;19.27;11.88;;;538.20;1638.40;;;;;;5094337;28;20063;-56
2021/07/21 02:04:07;;;;;;;15.45;11.05;;;538.10;1638.40;;;;;;5094644;28;20419;-56
2021/07/21 02:06:35;;;;;;;16.05;11.30;;;538.10;1638.40;;;;;;5094558;28;20032;-56
2021/07/21 02:09:03;;;;;;;18.88;12.18;;;538.00;1664.00;;;;;;5094243;28;20472;-56
2021/07/21 02:11:29;;;;;;;15.77;11.10;;;538.10;1638.40;;;;;;5094519;28;20135;-56
2021/07/21 02:14:01;;;;;;;14.93;11.35;;;538.10;1638.40;;;;;;5092987;28;20032;-56
2021/07/21 02:16:28;;;;;;;14.25;11.07;;;538.10;1638.40;;;;;;5094494;28;20146;-56
2021/07/21 02:18:56;;;;;;;17.85;12.23;;;538.10;1638.40;;;;;;5094110;28;20626;-57
2021/07/21 02:21:24;;;;;;;17.35;12.40;;;538.10;1638.40;;;;;;5094398;28;20358;-56
2021/07/21 02:23:51;;;;;;;15.98;11.35;;;538.10;1638.40;;;;;;5094337;28;20103;-56
2021/07/21 02:26:18;;;;;;;15.80;10.88;;;537.90;1638.40;;;;;;5094287;28;20054;-56
2021/07/21 02:28:45;;;;;;;14.57;10.75;;;537.90;1664.00;;;;;;5093906;28;20061;-56
2021/07/21 02:31:18;;;;;;;15.73;11.50;;;537.90;1664.00;;;;;;5093956;28;20093;-56
2021/07/21 02:33:49;;;;;;;16.30;10.90;;;537.90;1638.40;;;;;;5093866;28;20028;-56
2021/07/21 02:36:16;;;;;;;14.85;10.48;;;538.00;1638.40;;;;;;5093853;28;20029;-56
2021/07/21 02:38:42;;;;;;;17.17;10.32;;;537.90;1664.00;;;;;;5093830;28;20028;-57
2021/07/21 02:41:08;;;;;;;16.77;11.68;;;537.90;1638.40;;;;;;5094065;28;20026;-57
2021/07/21 02:43:34;;;;;;;16.98;11.40;;;537.80;1638.40;;;;;;5093708;28;20116;-57
2021/07/21 02:46:01;;;;;;;17.50;11.15;;;537.70;1664.00;;;;;;5093700;28;20601;-56
2021/07/21 02:48:26;;;;;;;17.00;10.50;;;537.80;1638.40;;;;;;5093602;28;20034;-56
2021/07/21 02:50:58;;;;;;;18.00;11.10;;;537.80;1638.40;;;;;;5093969;28;20103;-57
2021/07/21 02:53:31;;;;;;;15.10;10.77;;;537.80;1638.40;;;;;;5093568;28;20548;-56
2021/07/21 02:56:03;;;;;;;14.73;11.05;;;537.80;1638.40;;;;;;5093599;28;20028;-57
2021/07/21 02:58:45;;;;;;;13.65;10.80;;;537.80;1638.40;;;;;;5093630;28;20028;-56
2021/07/21 03:01:15;;;;;;;16.40;11.43;;;537.80;1638.40;;;;;;5093856;28;20047;-56
2021/07/21 03:03:43;;;;;;;16.35;11.05;;;537.80;1638.40;;;;;;5094131;28;20017;-57
2021/07/21 03:06:10;;;;;;;16.55;11.73;;;537.80;1638.40;;;;;;5093459;28;20024;-56
2021/07/21 03:08:37;;;;;;;19.13;11.82;;;537.80;1638.40;;;;;;5092254;28;20400;-56
2021/07/21 03:11:04;;;;;;;15.98;11.80;;;537.70;1638.40;;;;;;5093661;28;20077;-56
2021/07/21 03:13:43;;;;;;;19.00;11.55;;;537.70;1638.40;;;;;;5093444;28;20032;-56
2021/07/21 03:16:10;;;;;;;17.25;11.25;;;537.80;1638.40;;;;;;5093407;28;20016;-57
2021/07/21 03:18:38;;;;;;;15.18;11.00;;;537.70;1638.40;;;;;;5093427;28;20085;-56
2021/07/21 03:21:04;;;;;;;14.80;11.75;;;537.70;1664.00;;;;;;5093692;28;20028;-56
2021/07/21 03:23:30;;;;;;;16.92;11.00;;;537.60;1664.00;;;;;;5093297;28;20085;-56
2021/07/21 03:25:59;;;;;;;21.40;11.02;;;537.60;1664.00;;;;;;5093582;28;20020;-56
2021/07/21 03:28:27;;;;;;;17.65;11.52;;;537.60;1638.40;;;;;;5093032;28;20044;-56
2021/07/21 03:30:54;;;;;;;15.63;10.77;;;537.70;1638.40;;;;;;5093230;28;20028;-56
2021/07/21 03:33:23;;;;;;;16.48;11.18;;;537.70;1664.00;;;;;;5093114;28;20043;-56
2021/07/21 03:35:51;;;;;;;13.85;11.18;;;537.60;1638.40;;;;;;5093502;28;20069;-56
2021/07/21 03:38:21;;;;;;;16.70;11.52;;;537.70;1638.40;;;;;;5093496;28;20091;-56
2021/07/21 03:40:50;;;;;;;18.27;11.13;;;537.70;1638.40;;;;;;5093146;28;20498;-57
2021/07/21 03:43:17;;;;;;;15.77;11.80;;;537.60;1638.40;;;;;;5093455;28;20028;-56
2021/07/21 03:45:44;;;;;;;14.25;11.18;;;537.70;1638.40;;;;;;5093385;28;20032;-57
2021/07/21 03:48:11;;;;;;;15.60;11.98;;;537.70;1638.40;;;;;;5093065;28;20524;-57
2021/07/21 03:50:37;;;;;;;15.90;11.07;;;537.80;1638.40;;;;;;5093336;28;20032;-56
2021/07/21 03:53:04;;;;;;;16.38;11.32;;;537.60;1664.00;;;;;;5093342;28;20165;-56
2021/07/21 03:55:34;;;;;;;14.05;11.18;;;537.60;1664.00;;;;;;5093007;28;20035;-56
2021/07/21 03:58:00;;;;;;;15.35;11.30;;;537.60;1664.00;;;;;;5093005;28;20085;-56
2021/07/21 04:00:26;;;;;;;16.35;10.85;;;512.90;1664.00;;;;;;5095161;28;20023;-56
2021/07/21 04:02:55;;;;;;;16.00;11.40;;;512.90;1664.00;;;;;;5097003;28;20035;-56
2021/07/21 04:05:25;;;;;;;15.75;10.80;;;512.90;1638.40;;;;;;5096720;28;20021;-56
2021/07/21 04:07:52;;;;;;;19.15;12.20;;;537.60;1689.60;;;;;;5097256;28;20504;-57
2021/07/21 04:10:18;;;;;;;16.38;11.63;;;512.90;1664.00;;;;;;5096575;28;20032;-56
2021/07/21 04:12:47;;;;;;;16.20;10.57;;;512.90;1664.00;;;;;;5097071;28;20035;-56
2021/07/21 04:15:13;;;;;;;15.10;10.30;;;537.60;1664.00;;;;;;5096526;28;20016;-56
2021/07/21 04:17:41;;;;;;;12.55;10.38;;;537.60;1689.60;;;;;;5096456;28;20034;-56
2021/07/21 04:20:08;;;;;;;16.50;10.95;;;537.60;1689.60;;;;;;5096411;28;20023;-56
2021/07/21 04:22:36;;;;;;;14.77;10.35;;;537.60;1664.00;;;;;;5096418;28;20111;-56
2021/07/21 04:25:03;;;;;;;14.93;10.88;;;537.60;1689.60;;;;;;5097163;28;20027;-57
2021/07/21 04:27:29;;;;;;;15.98;10.07;;;537.60;1664.00;;;;;;5096224;28;20059;-57
2021/07/21 04:29:56;;;;;;;14.85;9.80;;;537.60;1664.00;;;;;;5096274;28;20102;-56
2021/07/21 04:32:24;;;;;;;12.70;9.50;;;537.60;1664.00;;;;;;5096728;28;20031;-56
2021/07/21 04:34:51;;;;;;;14.27;10.13;;;537.60;1664.00;;;;;;5096159;28;20028;-57
2021/07/21 04:37:18;;;;;;;17.80;10.63;;;537.60;1664.00;;;;;;5096164;28;20020;-56
2021/07/21 04:39:45;;;;;;;15.57;10.38;;;537.60;1664.00;;;;;;5096119;28;20376;-57
2021/07/21 04:42:12;;;;;;;11.43;9.40;;;537.60;1664.00;;;;;;5096365;28;20107;-56
2021/07/21 04:44:40;;;;;;;10.98;9.60;;;537.60;1664.00;;;;;;5095916;28;20099;-56
2021/07/21 04:47:07;;;;;;;13.20;9.68;;;537.60;1664.00;;;;;;5096210;28;20115;-57
2021/07/21 04:49:38;;;;;;;15.00;9.73;;;537.70;1664.00;;;;;;5096205;28;20354;-56
2021/07/21 04:52:05;;;;;;;15.98;10.07;;;537.60;1664.00;;;;;;5095800;28;20059;-56
2021/07/21 04:54:32;;;;;;;12.07;8.63;;;537.70;1664.00;;;;;;5095787;28;20419;-56
2021/07/21 04:56:58;;;;;;;12.75;8.50;;;537.70;1664.00;;;;;;5095720;28;20063;-56
2021/07/21 04:59:25;;;;;;;15.30;9.55;;;537.80;1664.00;;;;;;5095683;28;20379;-56
2021/07/21 05:01:51;;;;;;;16.73;9.80;;;537.70;1664.00;;;;;;5095678;28;20035;-56
2021/07/21 05:04:17;;;;;;;13.35;9.38;;;537.70;1664.00;;;;;;5095908;28;20059;-56
2021/07/21 05:06:44;;;;;;;13.32;9.30;;;537.70;1664.00;;;;;;5095877;28;20027;-56
2021/07/21 05:09:11;;;;;;;17.45;9.18;;;537.70;1664.00;;;;;;5095499;28;20472;-56
2021/07/21 05:11:38;;;;;;;10.73;8.57;;;537.80;1664.00;;;;;;5094299;28;20028;-56
2021/07/21 05:14:05;;;;;;;16.13;8.90;;;537.80;1664.00;;;;;;5095346;28;20115;-56
2021/07/21 05:16:31;;;;;;;12.85;9.27;;;537.90;1664.00;;;;;;5095408;28;20476;-56
2021/07/21 05:18:57;;;;;;;14.10;9.75;;;537.80;1664.00;;;;;;5095609;28;20054;-56
2021/07/21 05:21:24;;;;;;;12.55;9.20;;;537.90;1664.00;;;;;;5095294;28;20469;-56
2021/07/21 05:23:51;;;;;;;10.32;8.52;;;538.00;1664.00;;;;;;5095554;28;20035;-56
2021/07/21 05:26:16;;;;;;;13.40;8.82;;;538.00;1638.40;;;;;;5095128;28;20125;-56
2021/07/21 05:28:43;;;;;;;13.48;9.13;;;537.90;1638.40;;;;;;5094928;28;20169;-56
2021/07/21 05:31:09;;;;;;;12.82;8.75;;;537.90;1664.00;;;;;;5095052;28;20028;-57
2021/07/21 05:33:37;;;;;;;13.45;9.10;;;538.00;1664.00;;;;;;5094857;28;20101;-56
2021/07/21 05:36:04;;;;;;;16.65;8.57;;;538.00;1664.00;;;;;;5094919;28;20031;-56
2021/07/21 05:38:31;;;;;;;16.85;9.57;;;537.90;1664.00;;;;;;5095264;28;20058;-56
2021/07/21 05:40:56;;;;;;;14.70;8.52;;;537.90;1664.00;;;;;;5095132;28;20028;-56
2021/07/21 05:43:23;;;;;;;13.32;8.80;;;538.00;1664.00;;;;;;5094788;28;20381;-56
2021/07/21 05:45:49;;;;;;;12.63;8.60;;;538.00;1689.60;;;;;;5094685;28;20477;-56
2021/07/21 05:48:16;;;;;;;14.82;8.73;;;538.00;1664.00;;;;;;5094663;28;20020;-56
2021/07/21 05:50:42;;;;;;;13.27;9.10;;;538.00;1689.60;;;;;;5094647;28;20043;-56
2021/07/21 05:53:08;;;;;;;12.02;8.45;;;537.90;1689.60;;;;;;5094487;28;20036;-56
2021/07/21 05:55:34;;;;;;;12.15;8.25;;;538.00;1664.00;;;;;;5094565;28;20464;-56
2021/07/21 05:58:00;;;;;;;14.23;8.45;;;538.00;1664.00;;;;;;5094791;28;20057;-56
2021/07/21 06:00:26;;;;;;;11.07;8.10;;;538.10;1664.00;;;;;;5094576;28;20020;-56
2021/07/21 06:02:51;;;;;;;13.57;8.50;;;538.00;1664.00;;;;;;5094625;28;20038;-56
2021/07/21 06:05:17;;;;;;;14.10;8.35;;;538.10;1664.00;;;;;;5094301;28;20237;-56
2021/07/21 06:07:43;;;;;;;14.45;8.43;;;538.20;1664.00;;;;;;5094307;28;20032;-56
2021/07/21 06:10:10;;;;;;;11.75;8.80;;;538.20;1664.00;;;;;;5094493;28;20024;-56
2021/07/21 06:12:36;;;;;;;12.70;8.10;;;538.20;1638.40;;;;;;5094042;28;20032;-56
2021/07/21 06:15:04;;;;;;;12.55;8.18;;;538.30;1664.00;;;;;;5094338;28;20031;-56
2021/07/21 06:17:31;;;;;;;12.55;8.18;;;538.30;1664.00;;;;;;5094128;28;20024;-56
2021/07/21 06:19:57;;;;;;;19.13;8.57;;;538.30;1638.40;;;;;;5094054;28;20032;-56
2021/07/21 06:22:23;;;;;;;14.18;8.15;;;538.40;1638.40;;;;;;5093705;28;20435;-56
2021/07/21 06:24:49;;;;;;;14.07;9.02;;;538.50;1638.40;;;;;;5094302;28;20107;-56
2021/07/21 06:27:15;;;;;;;10.82;7.97;;;538.50;1638.40;;;;;;5093703;28;20555;-57
2021/07/21 06:29:41;;;;;;;11.55;9.43;;;563.20;1664.00;;;;;;5093950;28;20114;-56
2021/07/21 06:32:08;;;;;;;16.73;8.05;;;563.20;1664.00;;;;;;5093913;28;20553;-56
2021/07/21 06:34:34;;;;;;;13.65;8.45;;;563.30;1638.40;;;;;;5094116;28;20028;-56
2021/07/21 06:37:00;;;;;;;12.52;8.88;;;563.50;1638.40;;;;;;5093788;28;20024;-56
2021/07/21 06:39:26;;;;;;;14.27;9.02;;;563.50;1638.40;;;;;;5094136;28;20023;-56
2021/07/21 06:41:52;;;;;;;13.07;8.65;;;563.60;1638.40;;;;;;5093755;28;20408;-56
2021/07/21 06:44:18;;;;;;;11.88;8.63;;;563.70;1612.80;;;;;;5093749;28;20437;-56
2021/07/21 06:46:44;;;;;;;11.23;8.02;;;563.80;1612.80;;;;;;5093617;28;20119;-56
2021/07/21 06:49:09;;;;;;;12.90;9.32;;;564.00;1612.80;;;;;;5094437;28;20024;-56
2021/07/21 06:51:36;;;;;;;14.55;8.82;;;564.10;1587.20;;;;;;5093813;28;20051;-56
2021/07/21 06:54:02;;;;;;;15.00;8.48;;;564.10;1587.20;;;;;;5093559;28;20020;-56
2021/07/21 06:56:28;;;;;;;14.45;8.30;;;588.80;1612.80;;;;;;5093482;28;20495;-56
2021/07/21 06:58:55;;;;;;;12.57;8.98;;;588.90;1587.20;;;;;;5093477;28;20024;-56
2021/07/21 07:01:21;;;;;;;10.90;8.23;;;589.00;1587.20;;;;;;5093422;28;20480;-56
2021/07/21 07:03:47;;;;;;;13.20;8.63;;;589.10;1587.20;;;;;;5093753;28;20069;-60
2021/07/21 07:06:14;;;;;;;11.20;8.73;;;589.20;1561.60;;;;;;5093315;28;20023;-56
2021/07/21 07:08:40;;;;;;;12.68;8.88;;;589.30;1561.60;;;;;;5093666;28;20020;-56
2021/07/21 07:11:06;;;;;;;12.10;8.02;;;589.30;1561.60;;;;;;5093245;28;20107;-56
2021/07/21 07:13:33;;;;;;;12.45;8.88;;;589.40;1561.60;;;;;;5093553;28;20040;-56
2021/07/21 07:16:00;;;;;;;14.57;8.95;;;589.50;1536.00;;;;;;5093225;28;20024;-56
2021/07/21 07:18:27;;;;;;;11.38;8.30;;;589.50;1561.60;;;;;;5093350;28;20032;-56
2021/07/21 07:20:54;;;;;;;13.70;8.73;;;589.40;1587.20;;;;;;5093412;28;20027;-57
2021/07/21 07:23:20;;;;;;;13.20;9.00;;;589.40;1587.20;;;;;;5093262;28;20031;-56
2021/07/21 07:25:46;;;;;;;12.45;8.65;;;589.40;1561.60;;;;;;5093347;28;20024;-57
2021/07/21 07:28:12;;;;;;;11.80;8.77;;;589.50;1587.20;;;;;;5092778;28;20542;-57
2021/07/21 07:30:38;;;;;;;29.30;16.95;;;589.50;1587.20;;;;;;5092993;28;20056;-56
2021/07/21 07:33:04;;;;;;;16.35;9.90;;;589.60;1587.20;;;;;;5093029;28;20499;-56
2021/07/21 07:35:30;;;;;;;12.98;9.00;;;589.50;1587.20;;;;;;5095615;28;20028;-57
2021/07/21 07:37:56;;;;;;;23.92;8.70;;;589.50;1587.20;;;;;;5097165;28;20065;-56
2021/07/21 07:40:22;;;;;;;12.43;8.60;;;589.60;1561.60;;;;;;5097459;28;20047;-57
2021/07/21 07:42:48;;;;;;;12.70;8.57;;;589.70;1561.60;;;;;;5097392;28;20384;-56
2021/07/21 07:45:14;;;;;;;12.30;8.80;;;589.70;1587.20;;;;;;5097068;28;20024;-57
2021/07/21 07:47:40;;;;;;;12.63;8.07;;;614.40;1561.60;;;;;;5096965;28;20085;-57
2021/07/21 07:50:09;;;;;;;11.55;8.68;;;614.40;1561.60;;;;;;5096965;28;20060;-56
2021/07/21 07:52:35;;;;;;;15.45;9.23;;;614.40;1561.60;;;;;;5097132;28;20055;-56
2021/07/21 07:55:03;;;;;;;13.90;8.45;;;614.40;1587.20;;;;;;5096834;28;20024;-56
2021/07/21 07:57:29;;;;;;;13.43;8.88;;;614.50;1561.60;;;;;;5096793;28;20103;-55
2021/07/21 07:59:55;;;;;;;12.65;8.10;;;614.60;1536.00;;;;;;5097038;28;20031;-56
2021/07/21 08:02:20;;;;;;;10.77;8.43;;;614.60;1561.60;;;;;;5096750;28;20020;-55
2021/07/21 08:04:46;;;;;;;10.75;7.95;;;614.60;1561.60;;;;;;5096951;28;20024;-57
2021/07/21 08:07:12;;;;;;;10.93;7.95;;;614.70;1561.60;;;;;;5096592;28;20480;-56
2021/07/21 08:09:38;;;;;;;10.20;8.40;;;614.70;1536.00;;;;;;5096589;28;20024;-55
2021/07/21 08:12:05;;;;;;;12.52;7.47;;;614.70;1561.60;;;;;;5096744;28;20032;-56
2021/07/21 08:14:31;;;;;;;13.85;8.40;;;614.80;1561.60;;;;;;5096847;28;20035;-56
2021/07/21 08:16:58;;;;;;;9.50;7.03;;;614.80;1561.60;;;;;;5096402;28;20066;-57
2021/07/21 08:19:24;;;;;;;14.00;7.70;;;614.80;1561.60;;;;;;5096386;28;20035;-56
2021/07/21 08:21:51;;;;;;;17.15;8.95;;;614.90;1561.60;;;;;;5096354;28;20484;-56
2021/07/21 08:24:17;;;;;;;10.25;7.65;;;614.90;1561.60;;;;;;5096171;28;20067;-55
2021/07/21 08:26:44;;;;;;;13.18;8.98;;;615.00;1587.20;;;;;;5096158;28;20024;-56
2021/07/21 08:29:10;;;;;;;11.90;8.20;;;615.00;1561.60;;;;;;5096545;28;20091;-56
2021/07/21 08:31:37;;;;;;;11.68;8.70;;;614.90;1561.60;;;;;;5097018;28;20050;-56
2021/07/21 08:34:05;;;;;;;10.45;8.63;;;614.90;1561.60;;;;;;5096151;28;20036;-55
2021/07/21 08:36:33;;;;;;;12.02;8.60;;;614.80;1561.60;;;;;;5096101;28;20031;-56
2021/07/21 08:38:59;;;;;;;10.32;7.65;;;614.90;1561.60;;;;;;5095965;28;20048;-57
2021/07/21 08:41:26;;;;;;;10.90;7.85;;;615.00;1561.60;;;;;;5095936;28;20063;-56
2021/07/21 08:43:56;;;;;;;11.40;8.35;;;615.00;1561.60;;;;;;5095970;28;20034;-57
2021/07/21 08:46:22;;;;;;;14.45;8.73;;;614.90;1561.60;;;;;;5095726;28;20024;-56
2021/07/21 08:48:52;;;;;;;16.20;8.82;;;615.00;1561.60;;;;;;5095846;28;20047;-57
2021/07/21 08:51:22;;;;;;;10.77;8.20;;;615.10;1561.60;;;;;;5095776;28;20035;-56
2021/07/21 08:53:49;;;;;;;12.27;8.23;;;615.00;1587.20;;;;;;5095894;28;20388;-56
2021/07/21 08:56:17;;;;;;;12.30;8.70;;;615.00;1587.20;;;;;;5095950;28;20376;-57
2021/07/21 08:58:47;;;;;;;12.23;8.40;;;615.10;1587.20;;;;;;5095636;28;20493;-56
2021/07/21 09:01:14;;;;;;;17.85;8.93;;;615.10;1587.20;;;;;;5095849;28;20028;-57
2021/07/21 09:03:41;;;;;;;12.15;9.15;;;615.10;1561.60;;;;;;5095552;28;20029;-56
2021/07/21 09:06:08;;;;;;;13.07;8.38;;;615.00;1587.20;;;;;;5095776;28;20024;-56
2021/07/21 09:08:34;;;;;;;12.20;7.88;;;615.10;1561.60;;;;;;5095426;28;20028;-56
2021/07/21 09:11:02;;;;;;;11.75;8.73;;;615.10;1587.20;;;;;;5095366;28;20536;-57
2021/07/21 09:13:29;;;;;;;10.93;8.13;;;615.10;1587.20;;;;;;5095225;28;20054;-57
2021/07/21 09:15:55;;;;;;;14.15;8.32;;;615.20;1561.60;;;;;;5095286;28;20027;-56
2021/07/21 09:18:22;;;;;;;11.32;8.98;;;615.30;1561.60;;;;;;5095224;28;20028;-56
2021/07/21 09:21:07;;;;;;;12.93;8.80;;;615.20;1536.00;;;;;;5095463;28;20024;-56
2021/07/21 09:23:44;;;;;;;11.23;8.07;;;615.30;1561.60;;;;;;5095200;28;20031;-56
2021/07/21 09:26:17;;;;;;;17.45;9.75;;;615.30;1587.20;;;;;;5095117;28;20539;-58
2021/07/21 09:28:43;;;;;;;11.43;8.77;;;615.30;1561.60;;;;;;5094932;28;20080;-56
2021/07/21 09:31:31;;;;;;;14.55;9.32;;;615.30;1536.00;;;;;;5095245;28;20060;-56
2021/07/21 09:33:57;;;;;;;24.52;9.35;;;640.00;1536.00;;;;;;5095125;28;20060;-56
2021/07/21 09:36:23;;;;;;;12.45;9.20;;;614.90;1536.00;;;;;;5094806;28;20488;-56
2021/07/21 09:38:51;;;;;;;12.98;8.80;;;640.10;1561.60;;;;;;5095093;28;20064;-56
2021/07/21 09:41:17;;;;;;;15.68;9.05;;;640.10;1536.00;;;;;;5094786;28;20020;-56
2021/07/21 09:43:44;;;;;;;12.05;8.63;;;640.20;1536.00;;;;;;5094631;28;20107;-56
2021/07/21 09:46:14;;;;;;;12.95;9.25;;;640.20;1510.40;;;;;;5094925;28;20123;-56
2021/07/21 09:48:43;;;;;;;13.60;9.77;;;640.20;1536.00;;;;;;5094594;28;20028;-56
2021/07/21 09:51:11;;;;;;;12.82;9.20;;;640.20;1536.00;;;;;;5094187;28;20061;-56
2021/07/21 09:53:41;;;;;;;20.83;9.60;;;640.10;1561.60;;;;;;5094676;28;20476;-56
2021/07/21 09:56:08;;;;;;;14.27;8.50;;;640.10;1536.00;;;;;;5094372;28;20035;-56
2021/07/21 09:58:35;;;;;;;13.98;9.38;;;640.10;1536.00;;;;;;5092764;28;20024;-56
2021/07/21 10:01:01;;;;;;;19.63;9.88;;;640.20;1510.40;;;;;;5094769;28;20504;-56
2021/07/21 10:03:29;;;;;;;16.83;9.90;;;640.20;1536.00;;;;;;5094759;28;20039;-56
2021/07/21 10:06:12;;;;;;;17.75;10.40;;;640.30;1510.40;;;;;;5094704;28;20432;-56
2021/07/21 10:08:43;;;;;;;22.00;10.52;;;640.30;1510.40;;;;;;5094393;28;20482;-56
2021/07/21 10:11:30;;;;;;;22.65;10.02;;;640.30;1510.40;;;;;;5094614;28;20035;-56
2021/07/21 10:14:01;;;;;;;11.02;8.73;;;640.30;1510.40;;;;;;5094542;28;20040;-56
2021/07/21 10:16:45;;;;;;;14.45;8.60;;;640.30;1484.80;;;;;;5093043;28;20102;-56
2021/07/21 10:19:15;;;;;;;;;;;640.30;1484.80;;;;;;5094907;28;20051;-56
2021/07/21 10:21:49;;;;;;;12.52;8.88;;;640.30;1459.20;;;;;;5094229;28;19911;-56
2021/07/21 10:24:15;;;;;;;16.67;8.75;;;640.30;1459.20;;;;;;5094359;28;20023;-56
2021/07/21 10:26:42;;;;;;;17.33;9.15;;;640.30;1484.80;;;;;;5094145;28;20063;-56
2021/07/21 10:29:09;;;;;;;16.42;9.50;;;640.30;1510.40;;;;;;5094298;28;20559;-56
2021/07/21 10:31:36;;;;;;;14.48;8.82;;;640.50;1536.00;;;;;;5093124;28;20035;-56
2021/07/21 10:34:03;;;;;;;15.63;9.65;;;640.50;1510.40;;;;;;5094142;28;20043;-56
2021/07/21 10:36:31;;;;;;;14.30;8.90;;;640.60;1484.80;;;;;;5094138;28;20119;-56
2021/07/21 10:38:58;;;;;;;11.27;8.95;;;640.60;1459.20;;;;;;5093872;28;20024;-56
2021/07/21 10:41:27;;;;;;;12.95;10.13;;;640.60;1510.40;;;;;;5093827;28;20020;-56
2021/07/21 10:43:53;;;;;;;12.52;8.63;;;640.60;1484.80;;;;;;5093780;28;20045;-56
2021/07/21 10:46:40;;;;;;;13.05;8.85;;;640.50;1433.60;;;;;;5093787;28;20028;-56
2021/07/21 10:49:26;;;;;;;12.38;9.45;;;640.50;1484.80;;;;;;5093719;28;20028;-56
2021/07/21 10:55:18;;;;;;;14.02;9.30;;;640.50;1510.40;;;;;;5093766;28;20515;-56
2021/07/21 11:00:25;;;;;;;28.25;20.65;;;640.30;1510.40;;;;;;5093674;28;20377;-56
2021/07/21 11:02:52;;;;;;;18.42;9.75;;;640.50;1484.80;;;;;;5093614;28;20020;-56
2021/07/21 11:05:33;;;;;;;15.95;9.60;;;640.50;1459.20;;;;;;5093523;28;20016;-56
2021/07/21 11:08:03;;;;;;;26.08;10.43;;;640.60;1433.60;;;;;;5093528;28;20020;-56
2021/07/21 11:10:40;;;;;;;16.63;9.27;;;640.60;1459.20;;;;;;5091279;28;20024;-56
2021/07/21 11:13:09;;;;;;;15.32;8.48;;;640.60;1433.60;;;;;;5093446;28;20031;-56
2021/07/21 11:15:44;;;;;;;16.50;9.73;;;640.60;1408.00;;;;;;5093412;28;20016;-56
2021/07/21 11:18:22;;;;;;;19.30;8.77;;;640.60;1433.60;;;;;;5093450;28;20077;-56
2021/07/21 11:21:07;;;;;;;16.20;8.75;;;640.70;1459.20;;;;;;5093277;28;20028;-57
2021/07/21 11:23:59;;;;;;;16.58;8.88;;;640.80;1433.60;;;;;;5093263;28;20495;-56
2021/07/21 11:26:34;;;;;;;14.25;9.45;;;640.80;1459.20;;;;;;5093281;28;20031;-56
2021/07/21 11:29:22;;;;;;;13.38;8.73;;;640.80;1433.60;;;;;;5091852;28;20048;-56
2021/07/21 11:31:53;;;;;;;15.98;9.00;;;640.80;1459.20;;;;;;5093257;28;20054;-57
2021/07/21 11:34:28;;;;;;;12.55;9.00;;;640.80;1433.60;;;;;;5093130;28;20071;-56
2021/07/21 11:36:56;;;;;;;10.55;8.07;;;640.80;1408.00;;;;;;5091992;28;20027;-56
2021/07/21 11:39:42;;;;;;;10.48;7.97;;;640.80;1382.40;;;;;;5093102;28;20472;-56
2021/07/21 11:42:23;;;;;;;14.65;8.65;;;665.60;1433.60;;;;;;5092637;28;20031;-56
2021/07/21 11:44:50;;;;;;;13.70;9.10;;;665.60;1433.60;;;;;;5090594;28;20059;-57
2021/07/21 11:47:18;;;;;;;13.55;8.57;;;665.60;1433.60;;;;;;5092643;28;20031;-56
2021/07/21 11:49:51;;;;;;;11.80;8.38;;;665.70;1459.20;;;;;;5091736;28;20024;-57
2021/07/21 11:52:20;;;;;;;15.02;9.40;;;665.70;1433.60;;;;;;5092504;28;20083;-56
2021/07/21 11:54:46;;;;;;;11.60;8.50;;;665.70;1484.80;;;;;;5093103;28;20472;-56
2021/07/21 11:57:12;;;;;;;16.10;8.95;;;665.80;1484.80;;;;;;5091816;28;20095;-56
2021/07/21 11:59:40;;;;;;;20.52;9.35;;;665.80;1459.20;;;;;;5092894;28;20024;-56
2021/07/21 12:02:10;;;;;;;17.83;9.80;;;665.80;1484.80;;;;;;5093001;28;20143;-56
2021/07/21 12:05:01;;;;;;;15.45;8.52;;;665.80;1484.80;;;;;;5093105;28;20024;-56
2021/07/21 12:07:35;;;;;;;15.50;7.72;;;665.70;1459.20;;;;;;5092400;28;20137;-56
2021/07/21 12:10:10;;;;;;;21.98;8.35;;;665.70;1459.20;;;;;;5091758;28;20037;-56
2021/07/21 12:12:37;;;;;;;12.48;8.63;;;665.80;1484.80;;;;;;5092438;28;20032;-56
2021/07/21 12:15:04;;;;;;;16.98;8.32;;;665.80;1484.80;;;;;;5092672;28;20028;-56
2021/07/21 12:17:30;;;;;;;10.60;8.07;;;665.80;1459.20;;;;;;5092345;28;20525;-56
2021/07/21 12:20:02;;;;;;;11.73;8.20;;;665.80;1459.20;;;;;;5092938;28;20024;-56
2021/07/21 12:22:33;;;;;;;15.50;8.95;;;665.90;1484.80;;;;;;5095972;28;20618;-56
2021/07/21 12:25:03;;;;;;;14.45;9.45;;;665.90;1484.80;;;;;;5096472;28;20016;-56